الصفحة الرئيسية
METAR-TAF:

METAR-TAF

مطار :

لوساكا, زامبيا

دائرة عرض: 15-19-51S, خط طول: 028-27-09E, ارتفاع: 1152 متر

مراقبة الطقس الحالي

تاريخ ووقت الإصدار 28 دقيقة قبل الساعة 07:00UTC
ريح 12 عقدة من الشرق/الجنوب الشرقي
درجة الحرارة 17°درجة مئوية
الرطوبة 68%
ضغط 1025 hPa
الرؤية 10 كم أو أكثر
الغيوم لا تقل 1500 م ولا وجود لمزنة ركامية السحاب الأسود

METAR: FLKK 240700Z 12012KT CAVOK 17/11 Q1025 NOSIG

زمن: 09:28 (07:28 UTC)


TAF: مفقودة

أرصاد الطقس والتوقعات من أكثر من 4000 مطار (تقارير الطقس للمطار METAR والتنبؤ بالطقس بالمطارTAF).

المحطات المتاحة هي النقط الصفراء والحمراء على الخريطة.

حرك المؤشر فوق النقطة لمعرفة اسم المحطة.

ثم انقر لمعرفة أرصاد وتوقعات الطقس.

لتغيير الخارطة: اضغط على الأزرار الخضراء مع رمز الصليب الأسود للتكبير. على الزر الأخضر مع شرطة للتصغير، أو على الأسهم الخضراء للخرائط المجاورة.


METAR-TAF: